Time;durP1;ratioP1;P1;durP2;ratioP2;P2;SDS_P1;SDS_P2;PMS_P1;PMS_P2;Temp;Humidity;BMP_temperature;BMP_pressure;BME280_temperature;BME280_humidity;BME280_pressure;Samples;Min_cycle;Max_cycle;Signal;HPM_P1;HPM_P2
2021/03/06 00:02:14;;;;;;;6.57;2.55;;;4.50;53.90;;;;;;4826359;29;20109;-86
2021/03/06 00:04:40;;;;;;;9.27;2.97;;;4.50;54.00;;;;;;4824919;29;20172;-88
2021/03/06 00:07:06;;;;;;;5.47;2.55;;;4.50;53.90;;;;;;4827732;29;20042;-87
2021/03/06 00:09:32;;;;;;;7.85;2.83;;;4.60;53.90;;;;;;4824562;29;20042;-88
2021/03/06 00:11:58;;;;;;;6.47;2.40;;;4.50;54.00;;;;;;4824594;29;20640;-85
2021/03/06 00:14:23;;;;;;;11.75;2.75;;;4.50;54.20;;;;;;4823993;29;20113;-86
2021/03/06 00:16:49;;;;;;;10.90;3.00;;;4.60;54.10;;;;;;4809664;29;20038;-88
2021/03/06 00:19:15;;;;;;;6.32;2.50;;;4.60;54.20;;;;;;4807876;29;20478;-87
2021/03/06 00:21:40;;;;;;;5.95;2.47;;;4.50;54.20;;;;;;4823450;29;20038;-87
2021/03/06 00:24:07;;;;;;;7.35;2.42;;;4.50;54.40;;;;;;4823538;29;20077;-86
2021/03/06 00:26:32;;;;;;;5.65;2.63;;;4.60;54.40;;;;;;4807759;29;20026;-87
2021/03/06 00:28:58;;;;;;;4.90;2.80;;;4.60;54.50;;;;;;4808844;29;20027;-86
2021/03/06 00:31:24;;;;;;;3.95;2.10;;;4.60;54.50;;;;;;4822687;29;20121;-86
2021/03/06 00:33:49;;;;;;;7.47;2.63;;;4.60;54.70;;;;;;4806846;29;20049;-88
2021/03/06 00:36:15;;;;;;;4.85;2.72;;;4.50;54.80;;;;;;4823399;29;20046;-86
2021/03/06 00:38:40;;;;;;;6.47;2.65;;;4.50;54.90;;;;;;4823218;29;20034;-86
2021/03/06 00:41:06;;;;;;;6.28;2.38;;;4.60;55.10;;;;;;4809045;29;20303;-88
2021/03/06 00:43:31;;;;;;;6.15;2.42;;;4.50;55.10;;;;;;4823236;29;20101;-87
2021/03/06 00:45:58;;;;;;;9.02;2.58;;;4.60;55.30;;;;;;4823273;29;20050;-87
2021/03/06 00:48:24;;;;;;;6.50;2.17;;;4.60;55.30;;;;;;4823908;29;20046;-86
2021/03/06 00:50:49;;;;;;;5.95;2.63;;;4.50;55.40;;;;;;4823595;29;20041;-87
2021/03/06 00:53:16;;;;;;;9.57;2.88;;;4.60;55.60;;;;;;4809817;29;20716;-89
2021/03/06 00:55:44;;;;;;;7.82;2.00;;;4.60;55.60;;;;;;4807705;29;20042;-89
2021/03/06 00:58:09;;;;;;;6.90;2.45;;;4.50;55.70;;;;;;4807882;29;20443;-88
2021/03/06 01:00:36;;;;;;;7.60;2.60;;;4.50;55.90;;;;;;4824244;29;20106;-87
2021/03/06 01:03:02;;;;;;;8.95;3.00;;;4.50;56.30;;;;;;4823948;29;20078;-86
2021/03/06 01:05:27;;;;;;;10.80;2.75;;;4.50;56.40;;;;;;4823625;29;20058;-88
2021/03/06 01:07:56;;;;;;;10.35;3.05;;;4.50;56.60;;;;;;4826578;29;20331;-89
2021/03/06 01:10:28;;;;;;;9.68;3.28;;;4.50;56.80;;;;;;4823764;29;20117;-86
2021/03/06 01:12:54;;;;;;;8.73;3.50;;;4.40;57.10;;;;;;4807300;29;20042;-87
2021/03/06 01:15:19;;;;;;;6.30;2.45;;;4.50;57.80;;;;;;4823409;29;20069;-88
2021/03/06 01:17:45;;;;;;;9.88;2.80;;;4.30;57.60;;;;;;4807093;29;20046;-86
2021/03/06 01:20:11;;;;;;;12.77;2.67;;;4.40;57.70;;;;;;4825080;29;20046;-86
2021/03/06 01:22:37;;;;;;;9.35;2.75;;;4.40;58.00;;;;;;4823403;29;20038;-86
2021/03/06 01:25:05;;;;;;;6.95;2.58;;;4.30;58.20;;;;;;4822354;29;20054;-85
2021/03/06 01:27:31;;;;;;;;;;;4.30;58.60;;;;;;4821811;29;20397;-86
2021/03/06 01:29:56;;;;;;;8.02;2.88;;;4.20;58.70;;;;;;4821898;29;20353;-85
2021/03/06 01:32:22;;;;;;;9.52;2.75;;;4.40;58.90;;;;;;4821748;29;20030;-87
2021/03/06 01:34:48;;;;;;;9.55;3.00;;;4.40;58.90;;;;;;4823635;29;20358;-86
2021/03/06 01:37:13;;;;;;;6.40;2.53;;;4.40;59.10;;;;;;4822347;29;20035;-88
2021/03/06 01:39:39;;;;;;;7.05;2.42;;;4.30;59.50;;;;;;4821654;29;20038;-85
2021/03/06 01:42:06;;;;;;;5.72;2.42;;;4.50;59.90;;;;;;4805142;29;20057;-87
2021/03/06 01:44:31;;;;;;;9.35;2.85;;;4.40;59.90;;;;;;4805707;29;20525;-89
2021/03/06 01:46:58;;;;;;;7.35;2.08;;;4.30;60.20;;;;;;4824822;29;20110;-86
2021/03/06 01:49:25;;;;;;;6.97;2.20;;;4.30;60.70;;;;;;4821530;29;20038;-85
2021/03/06 01:51:51;;;;;;;5.63;2.22;;;4.30;61.10;;;;;;4805353;29;20447;-85
2021/03/06 01:54:22;;;;;;;7.00;2.10;;;4.30;61.30;;;;;;4821085;29;20477;-87
2021/03/06 01:56:49;;;;;;;9.60;1.95;;;4.30;61.60;;;;;;4804777;29;20401;-86
2021/03/06 01:59:15;;;;;;;6.25;2.20;;;4.30;62.00;;;;;;4822871;29;20038;-86
2021/03/06 02:01:42;;;;;;;7.18;1.75;;;4.30;62.30;;;;;;4820791;29;20043;-85
2021/03/06 02:04:07;;;;;;;11.40;2.35;;;4.40;62.60;;;;;;4804458;29;20059;-85
2021/03/06 02:06:34;;;;;;;10.20;2.53;;;4.30;62.80;;;;;;4805105;29;20054;-84
2021/03/06 02:09:00;;;;;;;6.57;1.90;;;4.30;63.10;;;;;;4804384;29;20070;-85
2021/03/06 02:11:40;;;;;;;16.50;2.70;;;4.40;63.50;;;;;;4804416;29;20076;-85
2021/03/06 02:14:30;;;;;;;10.50;2.15;;;4.40;63.80;;;;;;4822507;29;20041;-84
2021/03/06 02:17:20;;;;;;;9.27;2.28;;;4.30;64.30;;;;;;4822584;29;20068;-89
2021/03/06 02:20:04;;;;;;;6.47;2.08;;;4.20;64.50;;;;;;4822842;29;20350;-87
2021/03/06 02:22:57;;;;;;;5.88;2.25;;;4.30;65.10;;;;;;4822590;29;20045;-88
2021/03/06 02:25:58;;;;;;;4.00;1.80;;;4.30;65.50;;;;;;4823620;29;20054;-89
2021/03/06 02:28:42;;;;;;;8.27;2.10;;;4.30;65.90;;;;;;4810520;29;20042;-86
2021/03/06 02:31:18;;;;;;;6.82;2.22;;;4.30;65.90;;;;;;4825748;29;20038;-88
2021/03/06 02:33:58;;;;;;;11.00;2.20;;;4.20;66.40;;;;;;4809618;29;20480;-87
2021/03/06 02:36:26;;;;;;;10.60;2.40;;;4.10;66.90;;;;;;4825338;29;20558;-86
2021/03/06 02:38:55;;;;;;;7.13;2.17;;;4.20;67.10;;;;;;4825366;29;20380;-86
2021/03/06 02:41:25;;;;;;;10.43;2.20;;;4.20;67.60;;;;;;4807854;29;20026;-84
2021/03/06 02:43:53;;;;;;;8.80;2.03;;;4.00;68.10;;;;;;4810244;29;20758;-86
2021/03/06 02:46:24;;;;;;;7.50;2.00;;;4.00;68.40;;;;;;4808628;29;20046;-87
2021/03/06 02:48:52;;;;;;;15.13;4.57;;;4.10;68.80;;;;;;4824753;29;20046;-88
2021/03/06 02:51:17;;;;;;;5.78;2.10;;;4.00;68.70;;;;;;4808774;29;20099;-88
2021/03/06 02:53:43;;;;;;;6.03;2.20;;;3.90;69.30;;;;;;4825334;29;20089;-89
2021/03/06 02:56:11;;;;;;;4.50;1.90;;;4.00;69.50;;;;;;4826837;29;20183;-90
2021/03/06 02:58:56;;;;;;;4.78;1.95;;;4.00;69.70;;;;;;4808980;29;20042;-87
2021/03/06 03:01:43;;;;;;;4.75;2.10;;;4.10;70.00;;;;;;4824653;29;20041;-89
2021/03/06 03:04:32;;;;;;;8.05;2.28;;;3.90;70.90;;;;;;4824566;29;20061;-88
2021/03/06 03:07:09;;;;;;;6.70;1.85;;;3.80;71.10;;;;;;4826229;29;20041;-89
2021/03/06 03:09:39;;;;;;;9.20;2.40;;;4.00;71.60;;;;;;4826641;29;20058;-89
2021/03/06 03:12:21;;;;;;;9.00;2.70;;;4.10;71.60;;;;;;4824887;29;20064;-86
2021/03/06 03:15:06;;;;;;;11.40;2.70;;;3.70;73.20;;;;;;4825021;29;20109;-88
2021/03/06 03:17:44;;;;;;;7.47;2.65;;;3.80;73.60;;;;;;4815098;29;20052;-85
2021/03/06 03:20:36;;;;;;;4.45;2.47;;;3.90;73.60;;;;;;4833429;29;20497;-85
2021/03/06 03:23:12;;;;;;;4.78;2.05;;;3.90;73.70;;;;;;4829874;29;20038;-86
2021/03/06 03:25:40;;;;;;;5.78;2.08;;;4.00;73.80;;;;;;4825500;29;20041;-85
2021/03/06 03:28:08;;;;;;;14.45;2.63;;;3.90;74.20;;;;;;4824596;29;20072;-86
2021/03/06 03:30:35;;;;;;;;;;;3.70;75.20;;;;;;4825227;29;20115;-88
2021/03/06 03:33:04;;;;;;;6.93;2.10;;;3.80;75.50;;;;;;4824995;29;19916;-88
2021/03/06 03:35:32;;;;;;;17.23;2.95;;;3.80;75.80;;;;;;4824109;29;20038;-88
2021/03/06 03:38:00;;;;;;;;;;;3.80;76.30;;;;;;4809832;29;20083;-86
2021/03/06 03:40:26;;;;;;;4.95;2.20;;;3.70;76.80;;;;;;4807871;29;19917;-86
2021/03/06 03:42:52;;;;;;;4.65;2.00;;;3.70;77.00;;;;;;4824343;29;20042;-88
2021/03/06 03:45:20;;;;;;;8.63;2.50;;;3.80;77.20;;;;;;4824437;29;20492;-88
2021/03/06 03:47:46;;;;;;;14.45;2.97;;;3.80;78.00;;;;;;4807855;29;20462;-86
2021/03/06 03:50:14;;;;;;;9.18;2.35;;;3.90;77.80;;;;;;4809013;29;20069;-85
2021/03/06 03:52:50;;;;;;;14.75;2.80;;;3.90;78.40;;;;;;4806980;29;20042;-85
2021/03/06 03:55:18;;;;;;;9.60;2.72;;;3.80;78.70;;;;;;4806939;29;20042;-86
2021/03/06 03:57:45;;;;;;;;;;;3.80;78.90;;;;;;4806968;29;20453;-85
2021/03/06 04:00:13;;;;;;;8.30;2.83;;;3.90;78.70;;;;;;4806705;29;19913;-86
2021/03/06 04:02:38;;;;;;;9.25;3.15;;;3.90;78.90;;;;;;4822435;29;20121;-87
2021/03/06 04:05:06;;;;;;;12.68;2.65;;;3.80;79.50;;;;;;4824281;29;20034;-87
2021/03/06 04:07:47;;;;;;;9.07;2.53;;;3.90;79.90;;;;;;4822208;29;20125;-86
2021/03/06 04:10:16;;;;;;;10.70;2.50;;;3.80;80.30;;;;;;4822307;29;20364;-86
2021/03/06 04:12:42;;;;;;;12.52;3.05;;;3.90;80.80;;;;;;4822339;29;20030;-87
2021/03/06 04:15:09;;;;;;;10.65;2.60;;;4.00;80.70;;;;;;4806805;29;20058;-87
2021/03/06 04:17:35;;;;;;;11.45;2.40;;;3.70;80.60;;;;;;4822576;29;20034;-86
2021/03/06 04:20:08;;;;;;;11.45;2.05;;;3.90;80.90;;;;;;4807980;29;20648;-86
2021/03/06 04:22:34;;;;;;;10.27;2.67;;;3.80;81.50;;;;;;4822336;29;20175;-88
2021/03/06 04:24:59;;;;;;;11.82;3.15;;;3.60;82.10;;;;;;4806305;29;21131;-86
2021/03/06 04:27:25;;;;;;;5.93;3.15;;;3.60;82.60;;;;;;4823164;29;20053;-86
2021/03/06 04:29:51;;;;;;;6.72;2.90;;;3.70;82.80;;;;;;4805985;29;20030;-88
2021/03/06 04:32:17;;;;;;;11.50;2.67;;;3.80;83.10;;;;;;4823903;29;20038;-87
2021/03/06 04:34:43;;;;;;;7.40;2.70;;;3.80;82.80;;;;;;4822818;29;20349;-85
2021/03/06 04:37:08;;;;;;;5.95;2.33;;;3.70;83.50;;;;;;4806811;29;20045;-88
2021/03/06 04:39:34;;;;;;;9.45;2.80;;;3.70;83.60;;;;;;4806919;29;20574;-87
2021/03/06 04:42:00;;;;;;;10.88;3.00;;;3.70;83.80;;;;;;4805852;29;20694;-85
2021/03/06 04:44:25;;;;;;;9.27;2.58;;;3.60;84.60;;;;;;4821852;29;20067;-85
2021/03/06 04:46:52;;;;;;;6.10;2.08;;;3.60;84.80;;;;;;4808028;29;20030;-88
2021/03/06 04:49:18;;;;;;;10.15;2.50;;;3.60;85.30;;;;;;4822812;29;20042;-87
2021/03/06 04:51:45;;;;;;;11.63;2.75;;;3.60;85.40;;;;;;4822312;29;20061;-87
2021/03/06 04:54:10;;;;;;;13.18;2.53;;;3.50;85.60;;;;;;4822610;29;20038;-87
2021/03/06 04:56:36;;;;;;;12.13;2.50;;;3.50;86.30;;;;;;4822075;29;20461;-87
2021/03/06 04:59:03;;;;;;;6.40;2.50;;;3.50;86.90;;;;;;4823725;29;20034;-87
2021/03/06 05:01:29;;;;;;;10.23;2.42;;;3.60;86.60;;;;;;4805628;29;20046;-87
2021/03/06 05:03:54;;;;;;;11.43;2.40;;;3.50;86.60;;;;;;4805901;29;20076;-86
2021/03/06 05:06:20;;;;;;;12.88;2.35;;;3.40;87.90;;;;;;4821717;29;20035;-85
2021/03/06 05:08:45;;;;;;;15.48;2.28;;;3.50;87.80;;;;;;4821432;29;20030;-85
2021/03/06 05:11:12;;;;;;;11.40;2.47;;;3.50;87.80;;;;;;4806910;29;20057;-86
2021/03/06 05:13:38;;;;;;;7.95;2.17;;;3.50;88.00;;;;;;4821592;29;20042;-84
2021/03/06 05:16:04;;;;;;;5.80;2.38;;;3.40;88.50;;;;;;4821496;29;20041;-84
2021/03/06 05:18:31;;;;;;;7.18;2.35;;;3.50;88.90;;;;;;4804300;29;20069;-84
2021/03/06 05:20:57;;;;;;;6.32;2.67;;;3.50;88.80;;;;;;4821626;29;20053;-85
2021/03/06 05:23:23;;;;;;;9.85;2.40;;;3.50;88.90;;;;;;4821617;29;20034;-84
2021/03/06 05:25:49;;;;;;;10.68;2.10;;;3.50;88.90;;;;;;4822983;29;20485;-84
2021/03/06 05:28:19;;;;;;;8.70;2.13;;;3.50;89.00;;;;;;4821247;29;20038;-85
2021/03/06 05:30:46;;;;;;;9.18;2.30;;;3.50;89.10;;;;;;4821160;29;20053;-84
2021/03/06 05:33:13;;;;;;;10.57;2.42;;;3.50;89.30;;;;;;4804412;29;20057;-86
2021/03/06 05:35:38;;;;;;;8.07;2.05;;;3.50;89.30;;;;;;4804808;29;20033;-84
2021/03/06 05:38:04;;;;;;;7.13;2.10;;;3.40;90.00;;;;;;4822657;29;20022;-87
2021/03/06 05:40:34;;;;;;;8.43;2.65;;;3.60;90.00;;;;;;4804996;29;20054;-87
2021/03/06 05:43:01;;;;;;;10.63;2.28;;;3.60;89.80;;;;;;4804670;29;20061;-86
2021/03/06 05:45:26;;;;;;;5.90;2.20;;;3.50;90.30;;;;;;4821151;29;20039;-83
2021/03/06 05:47:52;;;;;;;8.60;2.15;;;3.60;90.00;;;;;;4821029;29;20417;-85
2021/03/06 05:50:18;;;;;;;7.13;1.83;;;3.70;90.00;;;;;;4822933;29;20038;-85
2021/03/06 05:52:46;;;;;;;9.57;1.95;;;3.60;90.00;;;;;;4821897;29;20381;-87
2021/03/06 05:55:16;;;;;;;12.27;2.10;;;3.60;90.30;;;;;;4805497;29;20073;-86
2021/03/06 05:57:42;;;;;;;10.82;1.85;;;3.50;90.30;;;;;;4821842;29;20038;-86
2021/03/06 06:00:09;;;;;;;13.05;2.17;;;3.60;90.30;;;;;;4807774;29;20038;-84
2021/03/06 06:02:35;;;;;;;7.28;2.00;;;3.60;90.40;;;;;;4827813;29;20038;-87
2021/03/06 06:05:01;;;;;;;8.85;2.15;;;3.60;90.30;;;;;;4812095;29;20057;-88
2021/03/06 06:07:28;;;;;;;7.10;1.45;;;3.70;90.20;;;;;;4808989;29;20473;-87
2021/03/06 06:09:54;;;;;;;11.48;1.90;;;3.60;90.60;;;;;;4809644;29;20370;-88
2021/03/06 06:12:20;;;;;;;7.68;1.83;;;3.60;90.40;;;;;;4809615;29;20050;-87
2021/03/06 06:14:46;;;;;;;9.18;2.45;;;3.70;90.50;;;;;;4825521;29;20045;-87
2021/03/06 06:17:11;;;;;;;6.82;2.00;;;3.70;90.40;;;;;;4810736;29;20026;-87
2021/03/06 06:19:38;;;;;;;5.57;1.50;;;3.70;90.40;;;;;;4828580;29;20053;-86
2021/03/06 06:22:17;;;;;;;5.82;1.75;;;3.90;90.60;;;;;;4825340;29;20053;-88
2021/03/06 06:24:47;;;;;;;8.40;1.75;;;3.70;90.50;;;;;;4825131;29;20051;-89
2021/03/06 06:27:22;;;;;;;9.73;2.05;;;3.80;90.50;;;;;;4825438;29;20046;-84
2021/03/06 06:29:48;;;;;;;10.38;1.63;;;3.70;90.70;;;;;;4823843;29;20381;-79
2021/03/06 06:32:17;;;;;;;8.15;1.77;;;3.70;90.80;;;;;;4810781;29;20031;-86
2021/03/06 06:35:09;;;;;;;7.10;1.52;;;3.70;90.80;;;;;;4824438;29;20090;-80
2021/03/06 06:37:35;;;;;;;11.55;2.08;;;3.80;90.70;;;;;;4808299;29;20175;-85
2021/03/06 06:40:18;;;;;;;7.13;1.70;;;3.90;90.80;;;;;;4823891;29;20533;-84
2021/03/06 06:42:44;;;;;;;9.23;1.60;;;4.00;90.60;;;;;;4808258;29;20050;-85
2021/03/06 06:45:11;;;;;;;7.78;1.55;;;3.90;90.40;;;;;;4807906;29;20442;-83
2021/03/06 06:47:40;;;;;;;13.57;1.90;;;4.10;90.50;;;;;;4807949;29;20042;-85
2021/03/06 06:50:08;;;;;;;5.75;1.70;;;4.10;90.30;;;;;;4831179;29;20117;-87
2021/03/06 06:52:40;;;;;;;11.38;2.10;;;4.10;90.30;;;;;;4830540;29;20039;-85
2021/03/06 06:55:10;;;;;;;14.73;1.90;;;4.10;90.20;;;;;;4832608;29;20043;-77
2021/03/06 06:57:51;;;;;;;9.00;1.70;;;4.10;90.40;;;;;;4829519;29;20042;-84
2021/03/06 07:00:19;;;;;;;14.80;2.20;;;4.20;90.30;;;;;;4808651;29;20038;-86
2021/03/06 07:02:55;;;;;;;7.75;1.70;;;4.40;90.20;;;;;;4808628;29;20093;-80
2021/03/06 07:05:40;;;;;;;13.63;1.70;;;4.50;90.00;;;;;;4823528;29;20023;-86
2021/03/06 07:08:07;;;;;;;3.88;1.00;;;4.50;90.00;;;;;;4826141;29;20087;-83
2021/03/06 07:10:52;;;;;;;7.65;1.02;;;4.50;90.00;;;;;;4824742;29;20054;-90
2021/03/06 07:13:19;;;;;;;9.75;1.25;;;4.50;89.90;;;;;;4808647;29;20069;-84
2021/03/06 07:15:57;;;;;;;12.90;1.42;;;4.70;89.80;;;;;;4824394;29;20039;-81
2021/03/06 07:18:23;;;;;;;5.38;1.55;;;4.70;89.70;;;;;;4823709;29;20061;-92
2021/03/06 07:20:49;;;;;;;9.80;1.55;;;4.70;89.80;;;;;;4823374;29;20027;-82
2021/03/06 07:23:25;;;;;;;7.63;1.65;;;4.80;89.90;;;;;;4809839;29;20058;-86
2021/03/06 07:25:56;;;;;;;6.60;1.48;;;5.00;89.70;;;;;;4824581;29;20410;-82
2021/03/06 07:28:22;;;;;;;9.05;2.00;;;5.20;89.20;;;;;;4807102;29;20105;-81
2021/03/06 07:30:49;;;;;;;4.72;1.65;;;5.30;88.80;;;;;;4822937;29;20185;-85
2021/03/06 07:33:17;;;;;;;13.00;1.60;;;5.30;88.60;;;;;;4824571;29;20050;-85
2021/03/06 07:35:44;;;;;;;8.35;1.48;;;5.30;88.70;;;;;;4806661;29;20118;-82
2021/03/06 07:38:15;;;;;;;5.75;1.65;;;5.40;88.50;;;;;;4824432;29;20078;-82
2021/03/06 07:40:46;;;;;;;12.00;1.83;;;5.60;88.00;;;;;;4823325;29;20541;-85
2021/03/06 07:43:34;;;;;;;7.82;1.48;;;5.60;87.80;;;;;;4822782;29;20057;-86
2021/03/06 07:46:01;;;;;;;9.55;2.20;;;5.30;88.50;;;;;;4822450;29;20140;-81
2021/03/06 07:48:31;;;;;;;10.88;2.30;;;5.30;88.70;;;;;;4822579;29;20590;-86
2021/03/06 07:50:58;;;;;;;18.42;2.45;;;5.20;89.20;;;;;;4822053;29;20507;-81
2021/03/06 07:53:27;;;;;;;8.13;2.35;;;5.10;89.40;;;;;;4796089;29;20034;-81
2021/03/06 07:55:53;;;;;;;4.70;1.50;;;5.30;89.40;;;;;;4823802;29;20033;-80
2021/03/06 07:58:20;;;;;;;10.50;1.50;;;5.30;89.00;;;;;;4822392;29;20038;-78
2021/03/06 08:00:48;;;;;;;8.07;1.35;;;5.40;88.70;;;;;;4822330;29;20045;-82
2021/03/06 08:03:29;;;;;;;10.35;2.20;;;5.40;89.00;;;;;;4822229;29;20137;-84
2021/03/06 08:05:56;;;;;;;10.23;1.80;;;5.20;89.40;;;;;;4822162;29;20545;-85
2021/03/06 08:08:34;;;;;;;7.30;1.98;;;5.40;89.60;;;;;;4823517;29;20118;-89
2021/03/06 08:11:18;;;;;;;6.47;1.70;;;5.40;88.90;;;;;;4808498;29;20065;-86
2021/03/06 08:13:48;;;;;;;9.23;1.52;;;5.40;88.50;;;;;;4823369;29;20046;-86
2021/03/06 08:16:23;;;;;;;4.07;1.33;;;5.40;88.60;;;;;;4806506;29;20062;-76
2021/03/06 08:19:00;;;;;;;5.70;1.73;;;5.30;89.50;;;;;;4821863;29;20034;-83
2021/03/06 08:21:34;;;;;;;7.82;1.50;;;5.40;90.30;;;;;;4822240;29;20098;-84
2021/03/06 08:24:21;;;;;;;8.52;1.48;;;5.50;90.40;;;;;;4820893;29;20046;-87
2021/03/06 08:27:11;;;;;;;13.05;1.45;;;5.40;90.60;;;;;;4822304;29;20103;-85
2021/03/06 08:29:37;;;;;;;6.28;1.10;;;5.30;91.10;;;;;;4802461;29;20038;-84
2021/03/06 08:32:06;;;;;;;6.95;1.27;;;5.30;91.30;;;;;;4825203;29;20039;-84
2021/03/06 08:34:49;;;;;;;7.03;1.60;;;5.30;91.20;;;;;;4807567;29;20038;-86
2021/03/06 08:37:21;;;;;;;8.32;1.52;;;5.40;91.30;;;;;;4823662;29;20054;-84
2021/03/06 08:39:58;;;;;;;7.65;1.45;;;5.50;91.30;;;;;;4824004;29;20051;-87
2021/03/06 08:42:30;;;;;;;5.00;1.30;;;5.70;91.10;;;;;;4826058;29;20037;-85
2021/03/06 08:45:06;;;;;;;7.15;2.28;;;6.00;90.70;;;;;;4825349;29;20476;-89
2021/03/06 08:47:34;;;;;;;8.00;1.70;;;6.00;90.40;;;;;;4807943;29;20034;-88
2021/03/06 08:50:07;;;;;;;7.80;1.67;;;5.90;90.40;;;;;;4826046;29;20178;-89
2021/03/06 08:52:41;;;;;;;11.15;1.63;;;5.90;90.60;;;;;;4826488;29;20050;-94
2021/03/06 08:55:10;;;;;;;3.85;1.23;;;6.00;90.80;;;;;;4826120;29;20050;-88
2021/03/06 08:57:39;;;;;;;10.80;2.00;;;6.00;90.40;;;;;;4824363;29;20151;-89
2021/03/06 09:00:20;;;;;;;10.25;1.90;;;6.00;90.40;;;;;;4825525;29;20042;-88
2021/03/06 09:02:47;;;;;;;10.65;1.83;;;6.10;90.50;;;;;;4828218;29;20054;-90
2021/03/06 09:05:19;;;;;;;12.75;1.85;;;6.00;90.80;;;;;;4828782;29;20034;-87
2021/03/06 09:07:52;;;;;;;6.13;1.75;;;6.20;90.90;;;;;;4826282;29;20034;-91
2021/03/06 09:10:24;;;;;;;7.25;1.40;;;5.90;91.00;;;;;;4824364;29;20046;-87
2021/03/06 09:12:53;;;;;;;6.10;1.88;;;5.80;91.30;;;;;;4822209;29;20038;-86
2021/03/06 09:15:34;;;;;;;7.85;2.50;;;5.90;91.60;;;;;;4805326;29;20117;-85
2021/03/06 09:18:00;;;;;;;6.70;1.80;;;6.20;91.40;;;;;;4820771;29;20042;-84
2021/03/06 09:20:35;;;;;;;9.07;2.10;;;6.70;91.20;;;;;;4823107;29;20048;-87
2021/03/06 09:23:01;;;;;;;6.72;1.75;;;7.20;91.30;;;;;;4824850;29;20054;-80
2021/03/06 09:25:38;;;;;;;5.82;2.03;;;8.00;90.70;;;;;;4804865;29;20085;-80
2021/03/06 09:28:11;;;;;;;9.85;1.73;;;8.70;88.40;;;;;;4821940;29;20038;-89
2021/03/06 09:30:40;;;;;;;10.73;2.00;;;8.60;86.60;;;;;;4805523;29;20201;-79
2021/03/06 09:33:27;;;;;;;10.18;1.92;;;8.90;85.40;;;;;;4821367;29;20049;-79
2021/03/06 09:36:02;;;;;;;11.60;1.80;;;8.60;83.20;;;;;;4804768;29;20104;-82
2021/03/06 09:38:28;;;;;;;5.72;1.60;;;8.00;84.40;;;;;;4804888;29;20099;-81
2021/03/06 09:40:54;;;;;;;4.95;1.42;;;7.80;84.30;;;;;;4806362;29;20445;-78
2021/03/06 09:43:32;;;;;;;7.20;3.00;;;7.50;84.70;;;;;;4802512;29;20053;-83
2021/03/06 09:45:59;;;;;;;;;;;7.60;85.60;;;;;;4803634;29;20082;-88
2021/03/06 09:48:25;;;;;;;3.60;1.17;;;7.60;86.00;;;;;;4787554;29;19952;-86
2021/03/06 09:50:56;;;;;;;5.50;1.10;;;7.10;87.70;;;;;;4786966;29;20038;-82
2021/03/06 09:53:27;;;;;;;5.20;1.27;;;7.10;89.10;;;;;;4802171;29;20187;-81
2021/03/06 09:56:11;;;;;;;10.05;1.55;;;6.80;90.50;;;;;;4804710;29;20379;-82
2021/03/06 09:58:40;;;;;;;13.68;1.58;;;6.70;91.40;;;;;;4802586;29;20051;-79
2021/03/06 10:01:19;;;;;;;4.20;1.45;;;6.80;91.60;;;;;;4786036;29;20465;-82
2021/03/06 10:03:46;;;;;;;6.00;1.50;;;6.90;91.60;;;;;;4802399;29;20458;-84
2021/03/06 10:06:16;;;;;;;5.80;1.25;;;6.70;91.50;;;;;;4802274;29;20050;-81
2021/03/06 10:08:51;;;;;;;5.07;1.40;;;6.80;91.40;;;;;;4802132;29;20537;-76
2021/03/06 10:11:17;;;;;;;6.78;2.08;;;6.90;91.20;;;;;;4804088;29;20038;-82
2021/03/06 10:13:44;;;;;;;6.18;1.85;;;7.00;91.10;;;;;;4802476;29;20106;-84
2021/03/06 10:16:10;;;;;;;6.10;1.52;;;6.80;90.80;;;;;;4802609;29;20050;-82
2021/03/06 10:18:38;;;;;;;13.95;1.90;;;6.70;90.90;;;;;;4801545;29;20042;-86
2021/03/06 10:21:20;;;;;;;9.30;2.60;;;6.60;91.00;;;;;;4802591;29;20686;-82
2021/03/06 10:23:46;;;;;;;9.55;1.60;;;6.70;90.90;;;;;;4786034;29;20067;-80
2021/03/06 10:26:24;;;;;;;9.35;1.42;;;6.70;90.50;;;;;;4787675;29;20461;-81
2021/03/06 10:29:15;;;;;;;6.35;2.17;;;6.70;90.90;;;;;;4786124;29;20035;-81
2021/03/06 10:31:40;;;;;;;9.13;1.80;;;7.20;90.80;;;;;;4786140;29;20058;-83
2021/03/06 10:34:22;;;;;;;8.32;2.13;;;7.50;90.50;;;;;;4801948;29;20039;-81
2021/03/06 10:37:11;;;;;;;3.90;1.67;;;7.70;90.10;;;;;;4802063;29;20446;-86
2021/03/06 10:39:54;;;;;;;9.57;1.67;;;7.70;90.10;;;;;;4804916;29;20087;-83
2021/03/06 10:42:22;;;;;;;6.60;1.40;;;7.40;90.10;;;;;;4803300;29;20118;-82
2021/03/06 10:44:47;;;;;;;6.33;1.57;;;7.70;90.10;;;;;;4802606;29;20038;-82
2021/03/06 10:47:13;;;;;;;5.43;1.60;;;7.70;90.10;;;;;;4805416;29;20026;-82
2021/03/06 10:49:41;;;;;;;16.20;2.30;;;7.50;90.40;;;;;;4805935;29;20054;-79
2021/03/06 10:52:21;;;;;;;9.40;1.65;;;7.30;90.90;;;;;;4805215;29;20115;-82
2021/03/06 10:54:53;;;;;;;2.78;1.50;;;7.30;91.10;;;;;;4805362;29;20137;-82
2021/03/06 10:57:19;;;;;;;5.22;1.42;;;7.10;91.70;;;;;;4788832;29;20039;-81
2021/03/06 10:59:45;;;;;;;13.13;1.85;;;7.00;91.50;;;;;;4804499;29;20046;-80
2021/03/06 11:02:27;;;;;;;6.32;1.50;;;7.10;91.50;;;;;;4805850;29;20373;-80
2021/03/06 11:04:53;;;;;;;4.55;1.60;;;7.30;91.60;;;;;;4805345;29;20091;-78
2021/03/06 11:07:29;;;;;;;6.30;1.60;;;7.20;92.20;;;;;;4804951;29;20055;-79
2021/03/06 11:09:59;;;;;;;4.20;1.75;;;6.80;93.00;;;;;;4805292;29;20035;-80
2021/03/06 11:12:30;;;;;;;5.65;1.50;;;6.90;93.60;;;;;;4804772;29;20126;-81
2021/03/06 11:15:15;;;;;;;12.75;1.63;;;6.80;93.90;;;;;;4804574;29;20108;-82
2021/03/06 11:17:44;;;;;;;4.25;1.27;;;7.10;93.80;;;;;;4804965;29;20039;-79
2021/03/06 11:20:12;;;;;;;6.82;2.00;;;7.20;93.80;;;;;;4790831;29;20086;-82
2021/03/06 11:22:39;;;;;;;4.88;1.23;;;7.10;93.50;;;;;;4805252;29;20050;-82
2021/03/06 11:25:06;;;;;;;8.50;1.80;;;7.00;93.50;;;;;;4788551;29;20047;-85
2021/03/06 11:27:57;;;;;;;12.45;2.22;;;7.10;93.40;;;;;;4804556;29;20055;-83
2021/03/06 11:30:33;;;;;;;3.55;1.48;;;7.20;93.40;;;;;;4804795;29;20541;-84
2021/03/06 11:33:00;;;;;;;14.25;2.03;;;7.20;93.30;;;;;;4805793;29;20469;-84
2021/03/06 11:35:26;;;;;;;11.17;2.00;;;7.10;93.80;;;;;;4804900;29;20076;-89
2021/03/06 11:37:52;;;;;;;5.28;2.47;;;7.20;93.40;;;;;;4790186;29;20118;-81
2021/03/06 11:40:24;;;;;;;7.80;1.95;;;7.30;93.20;;;;;;4788181;29;20100;-82
2021/03/06 11:42:50;;;;;;;6.65;2.28;;;7.20;93.20;;;;;;4788674;29;20050;-85
2021/03/06 11:45:17;;;;;;;5.40;1.48;;;7.00;93.80;;;;;;4804505;29;20034;-84
2021/03/06 11:47:45;;;;;;;5.80;1.58;;;7.00;93.30;;;;;;4804342;29;20123;-81
2021/03/06 11:50:13;;;;;;;10.25;2.03;;;7.10;93.60;;;;;;4789967;29;20031;-86
2021/03/06 11:52:39;;;;;;;;;;;7.00;93.40;;;;;;4789358;29;20690;-86
2021/03/06 11:55:07;;;;;;;5.88;1.58;;;7.30;93.20;;;;;;4805185;29;19913;-86
2021/03/06 11:57:33;;;;;;;9.70;1.92;;;7.50;92.80;;;;;;4804976;29;20071;-82
2021/03/06 11:59:58;;;;;;;5.22;1.98;;;7.70;92.80;;;;;;4804189;29;20046;-81
2021/03/06 12:02:24;;;;;;;3.60;1.52;;;7.70;92.50;;;;;;4804737;29;20023;-86
2021/03/06 12:04:50;;;;;;;8.38;1.55;;;7.50;93.10;;;;;;4803078;29;20059;-86
2021/03/06 12:07:16;;;;;;;7.55;1.50;;;7.70;93.40;;;;;;4800872;29;20287;-83
2021/03/06 12:09:42;;;;;;;6.43;1.55;;;7.80;92.40;;;;;;4786627;29;20554;-86
2021/03/06 12:12:08;;;;;;;5.85;1.50;;;7.60;92.40;;;;;;4786407;29;20126;-84
2021/03/06 12:14:34;;;;;;;7.85;2.20;;;7.80;92.80;;;;;;4786407;29;20031;-86
2021/03/06 12:17:00;;;;;;;5.28;1.63;;;7.70;93.00;;;;;;4802102;29;20064;-81
2021/03/06 12:19:26;;;;;;;11.65;1.95;;;7.80;93.00;;;;;;4785901;29;20075;-79
2021/03/06 12:21:51;;;;;;;4.55;1.30;;;8.00;92.90;;;;;;4799719;29;20509;-80
2021/03/06 12:24:17;;;;;;;6.88;1.70;;;7.80;92.60;;;;;;4799586;29;20047;-83
2021/03/06 12:26:43;;;;;;;5.38;1.50;;;7.90;93.00;;;;;;4785644;29;20046;-82
2021/03/06 12:29:09;;;;;;;5.55;1.90;;;8.00;92.40;;;;;;4787109;30;20450;-80
2021/03/06 12:31:34;;;;;;;3.40;1.58;;;8.20;92.20;;;;;;4784706;29;20402;-80
2021/03/06 12:34:00;;;;;;;4.88;1.40;;;8.40;92.30;;;;;;4786942;29;20039;-84
2021/03/06 12:36:26;;;;;;;6.30;1.80;;;8.40;91.90;;;;;;4787775;29;20423;-84
2021/03/06 12:38:51;;;;;;;6.57;1.63;;;8.70;92.00;;;;;;4802269;29;20039;-86
2021/03/06 12:41:17;;;;;;;9.07;1.60;;;8.80;91.60;;;;;;4789487;29;20100;-86
2021/03/06 12:43:43;;;;;;;8.35;2.00;;;8.60;91.40;;;;;;4800151;29;20460;-79
2021/03/06 12:46:08;;;;;;;4.20;1.17;;;8.70;91.40;;;;;;4785523;29;20428;-79
2021/03/06 12:48:34;;;;;;;5.20;2.33;;;8.50;91.40;;;;;;4799459;29;20130;-83
2021/03/06 12:51:00;;;;;;;16.40;5.68;;;8.60;91.60;;;;;;4784925;29;20218;-80
2021/03/06 12:53:25;;;;;;;10.35;2.33;;;8.60;91.60;;;;;;4799435;29;20117;-83
2021/03/06 12:55:51;;;;;;;7.95;2.50;;;8.70;91.50;;;;;;4787493;29;20054;-83
2021/03/06 12:58:17;;;;;;;9.40;3.08;;;8.40;91.70;;;;;;4799747;29;20077;-84
2021/03/06 13:00:42;;;;;;;7.78;2.50;;;8.40;92.00;;;;;;4785905;29;20039;-85
2021/03/06 13:03:08;;;;;;;9.93;2.13;;;8.50;92.00;;;;;;4791195;29;20506;-84
2021/03/06 13:05:34;;;;;;;6.30;2.08;;;8.50;92.00;;;;;;4803598;29;20103;-84
2021/03/06 13:07:59;;;;;;;5.70;1.80;;;8.30;92.20;;;;;;4805223;29;20371;-85
2021/03/06 13:10:25;;;;;;;3.72;1.65;;;8.30;92.20;;;;;;4803041;29;20050;-82